^^
Datos históricos de la estación: Murcia-Puente Tocinos
Diario Informe para Noviembre 2, 2019 Unidades:  Ambas    Ingés   Métrico
Diario Semanal Mensual Anual
  Máxima: Mínima: Promedio:
Temperatura: 81 °F /  27.2 °C 64.2 °F /  17.9 °C 72.1 °F /  22.3 °C
Punto de rocio: 58.8 °F /  14.9 °C 47.7 °F /  8.7 °C 53.8 °F /  12.1 °C
Humedad: 72% 32% 54%
Velocidad viento: 13.5mph /  21.7km/h - 5.5mph /  8.9km/h
Racha viento: 26.5mph /  42.6km/h - -
Viento- - SO
Presión: 29.9 in /  1013.7 hPa 29.7 in /  1005.0 hPa -
Precipitación: 0 in /  0.0 mm    
 
 
Tabla de datos para Noviembre 2, 2019
Hora Temperatura Punto de rocio Presión Viento Velocidad viento Racha viento Humedad Intensidad lluvia(por hora) Nubes
00:04 71.1 °F /  21.7 °C 58.8 °F /  14.9 °C 29.9in /  1013.7hPa SO 3.7mph /  6km/h 8.1mph /  13km/h 65.4% 0in /  0.0mm
00:09 70.9 °F /  21.6 °C 58.5 °F /  14.7 °C 29.9in /  1013.7hPa SO 3.6mph /  5.8km/h 8mph /  12.9km/h 65% 0in /  0.0mm
00:14 70.9 °F /  21.6 °C 58.5 °F /  14.7 °C 29.9in /  1013.6hPa SO 4.4mph /  7.1km/h 8.1mph /  13km/h 65% 0in /  0.0mm
00:19 70.5 °F /  21.4 °C 58.6 °F /  14.8 °C 29.9in /  1013.6hPa SO 4.7mph /  7.6km/h 6mph /  9.7km/h 65.9% 0in /  0.0mm
00:24 70.3 °F /  21.3 °C 58.5 °F /  14.7 °C 29.9in /  1013.6hPa SO 4.2mph /  6.7km/h 6mph /  9.7km/h 66% 0in /  0.0mm
00:29 70.2 °F /  21.2 °C 58.5 °F /  14.7 °C 29.9in /  1013.5hPa SO 4mph /  6.5km/h 6mph /  9.7km/h 66.3% 0in /  0.0mm
00:34 70.2 °F /  21.2 °C 58.6 °F /  14.8 °C 29.9in /  1013.5hPa SSO 4mph /  6.5km/h 6.2mph /  10km/h 66.9% 0in /  0.0mm
00:39 70.2 °F /  21.2 °C 58.6 °F /  14.8 °C 29.9in /  1013.6hPa SSO 4mph /  6.5km/h 6.9mph /  11.1km/h 67% 0in /  0.0mm
00:44 70 °F /  21.1 °C 58.5 °F /  14.7 °C 29.9in /  1013.6hPa SSO 4mph /  6.5km/h 8.5mph /  13.7km/h 67% 0in /  0.0mm
00:49 70 °F /  21.1 °C 58.5 °F /  14.7 °C 29.9in /  1013.6hPa SO 4mph /  6.5km/h 9mph /  14.5km/h 66.9% 0in /  0.0mm
00:54 70 °F /  21.1 °C 58.1 °F /  14.5 °C 29.9in /  1013.6hPa OSO 5mph /  8km/h 9mph /  14.5km/h 66% 0in /  0.0mm
00:59 70 °F /  21.1 °C 58.1 °F /  14.5 °C 29.9in /  1013.5hPa Oeste 5.2mph /  8.4km/h 7mph /  11.3km/h 66% 0in /  0.0mm
01:04 70 °F /  21.1 °C 58.1 °F /  14.5 °C 29.9in /  1013.5hPa Oeste 3.9mph /  6.3km/h 6mph /  9.7km/h 66.1% 0in /  0.0mm
01:09 69.8 °F /  21 °C 58.3 °F /  14.6 °C 29.9in /  1013.5hPa OSO 3.6mph /  5.8km/h 5mph /  8km/h 66.9% 0in /  0.0mm
01:14 69.6 °F /  20.9 °C 58.1 °F /  14.5 °C 29.9in /  1013.3hPa Oeste 3mph /  4.9km/h 5mph /  8km/h 67% 0in /  0.0mm
01:19 69.4 °F /  20.8 °C 57.9 °F /  14.4 °C 29.9in /  1013.3hPa Oeste 2.9mph /  4.7km/h 5.2mph /  8.4km/h 67% 0in /  0.0mm
01:24 69.3 °F /  20.7 °C 58.3 °F /  14.6 °C 29.9in /  1013.3hPa Oeste 2.9mph /  4.7km/h 5mph /  8km/h 68% 0in /  0.0mm
01:29 69.1 °F /  20.6 °C 58.1 °F /  14.5 °C 29.9in /  1013.1hPa SO 2.9mph /  4.7km/h 5mph /  8km/h 68% 0in /  0.0mm
01:34 68.9 °F /  20.5 °C 58.3 °F /  14.6 °C 29.9in /  1013.1hPa SO 2.5mph /  4km/h 5.2mph /  8.4km/h 68.6% 0in /  0.0mm
01:39 68.7 °F /  20.4 °C 58.1 °F /  14.5 °C 29.9in /  1013.1hPa SSO 2.4mph /  3.9km/h 5mph /  8km/h 69% 0in /  0.0mm
01:44 68.7 °F /  20.4 °C 57.9 °F /  14.4 °C 29.9in /  1013.1hPa Sur 2.8mph /  4.5km/h 5.2mph /  8.4km/h 68.2% 0in /  0.0mm
01:49 68.9 °F /  20.5 °C 57.9 °F /  14.4 °C 29.9in /  1013.1hPa Sur 2.9mph /  4.7km/h 5mph /  8km/h 68% 0in /  0.0mm
01:54 68.9 °F /  20.5 °C 58.1 °F /  14.5 °C 29.9in /  1013.1hPa SSE 2.9mph /  4.7km/h 5mph /  8km/h 68.3% 0in /  0.0mm
01:59 68.5 °F /  20.3 °C 58.1 °F /  14.5 °C 29.9in /  1012.9hPa SE 2.9mph /  4.7km/h 6.2mph /  10km/h 69.1% 0in /  0.0mm
02:04 68.2 °F /  20.1 °C 57.9 °F /  14.4 °C 29.9in /  1012.9hPa SE 3.5mph /  5.6km/h 6mph /  9.7km/h 69.9% 0in /  0.0mm
02:09 67.6 °F /  19.8 °C 57.9 °F /  14.4 °C 29.9in /  1012.9hPa SE 3.6mph /  5.8km/h 6.2mph /  10km/h 70.9% 0in /  0.0mm
02:14 67.5 °F /  19.7 °C 58.1 °F /  14.5 °C 29.9in /  1012.7hPa SE 3.6mph /  5.8km/h 6mph /  9.7km/h 71.8% 0in /  0.0mm
02:19 67.5 °F /  19.7 °C 58.1 °F /  14.5 °C 29.9in /  1012.7hPa SE 3.6mph /  5.8km/h 5.9mph /  9.5km/h 72% 0in /  0.0mm
02:24 67.5 °F /  19.7 °C 57.7 °F /  14.3 °C 29.9in /  1012.7hPa Sur 3.6mph /  5.8km/h 8.1mph /  13km/h 71.1% 0in /  0.0mm
02:29 67.6 °F /  19.8 °C 57.6 °F /  14.2 °C 29.9in /  1012.6hPa Sur 3.6mph /  5.8km/h 8mph /  12.9km/h 70.3% 0in /  0.0mm
02:34 67.8 °F /  19.9 °C 57.6 °F /  14.2 °C 29.9in /  1012.6hPa Sur 3.2mph /  5.2km/h 5mph /  8km/h 69.7% 0in /  0.0mm
02:39 68.2 °F /  20.1 °C 57.6 °F /  14.2 °C 29.9in /  1012.6hPa Sur 3.1mph /  5km/h 3.6mph /  5.8km/h 69% 0in /  0.0mm
02:44 68.2 °F /  20.1 °C 57.7 °F /  14.3 °C 29.9in /  1012.5hPa SSE 2.1mph /  3.4km/h 4.3mph /  6.9km/h 69% 0in /  0.0mm
02:49 68.4 °F /  20.2 °C 57.7 °F /  14.3 °C 29.9in /  1012.5hPa SE 1.8mph /  2.9km/h 6.2mph /  10km/h 68.7% 0in /  0.0mm
02:54 68.4 °F /  20.2 °C 57.4 °F /  14.1 °C 29.9in /  1012.5hPa SE 2.8mph /  4.5km/h 7.4mph /  11.9km/h 68% 0in /  0.0mm
02:59 68.5 °F /  20.3 °C 57 °F /  13.9 °C 29.9in /  1012.5hPa SE 3.1mph /  5km/h 7mph /  11.3km/h 67.1% 0in /  0.0mm
03:04 68.5 °F /  20.3 °C 57 °F /  13.9 °C 29.9in /  1012.5hPa SE 4.1mph /  6.6km/h 7mph /  11.3km/h 67% 0in /  0.0mm
03:09 68.4 °F /  20.2 °C 57 °F /  13.9 °C 29.9in /  1012.5hPa SE 4.3mph /  6.9km/h 6.9mph /  11.1km/h 67.3% 0in /  0.0mm
03:14 68 °F /  20 °C 57 °F /  13.9 °C 29.9in /  1012.3hPa SE 4.1mph /  6.6km/h 7mph /  11.3km/h 68% 0in /  0.0mm
03:19 67.8 °F /  19.9 °C 56.8 °F /  13.8 °C 29.9in /  1012.3hPa Sur 4mph /  6.5km/h 6mph /  9.7km/h 68% 0in /  0.0mm
03:24 67.6 °F /  19.8 °C 57.2 °F /  14 °C 29.9in /  1012.5hPa Oeste 2.7mph /  4.4km/h 5mph /  8km/h 69% 0in /  0.0mm
03:29 67.6 °F /  19.8 °C 56.8 °F /  13.8 °C 29.9in /  1012.5hPa SO 2.4mph /  3.9km/h 4.7mph /  7.6km/h 68.5% 0in /  0.0mm
03:34 67.8 °F /  19.9 °C 56.8 °F /  13.8 °C 29.9in /  1012.5hPa SO 2.8mph /  4.5km/h 5.2mph /  8.4km/h 68% 0in /  0.0mm
03:39 68.2 °F /  20.1 °C 57 °F /  13.9 °C 29.9in /  1012.5hPa SSO 2.9mph /  4.7km/h 5.4mph /  8.7km/h 67.5% 0in /  0.0mm
03:44 68.2 °F /  20.1 °C 56.8 °F /  13.8 °C 29.9in /  1012.3hPa SSO 3.7mph /  6km/h 6.2mph /  10km/h 67% 0in /  0.0mm
03:49 68.2 °F /  20.1 °C 56.8 °F /  13.8 °C 29.9in /  1012.3hPa SO 4mph /  6.5km/h 6mph /  9.7km/h 67% 0in /  0.0mm
03:54 68.2 °F /  20.1 °C 56.8 °F /  13.8 °C 29.9in /  1012.3hPa SO 4.2mph /  6.8km/h 6.9mph /  11.1km/h 67% 0in /  0.0mm
03:59 68 °F /  20 °C 56.3 °F /  13.5 °C 29.9in /  1012.0hPa SO 4.3mph /  6.9km/h 7.4mph /  11.9km/h 66.1% 0in /  0.0mm
04:04 68.2 °F /  20.1 °C 56.3 °F /  13.5 °C 29.9in /  1012.0hPa SO 4.7mph /  7.5km/h 7mph /  11.3km/h 66% 0in /  0.0mm
04:09 68.2 °F /  20.1 °C 56.1 °F /  13.4 °C 29.9in /  1012.0hPa SO 4.7mph /  7.6km/h 8.1mph /  13km/h 65.2% 0in /  0.0mm
04:14 68.2 °F /  20.1 °C 55.9 °F /  13.3 °C 29.9in /  1011.8hPa Oeste 4.4mph /  7.1km/h 8mph /  12.9km/h 65% 0in /  0.0mm
04:19 68.2 °F /  20.1 °C 55.9 °F /  13.3 °C 29.9in /  1011.8hPa OSO 4.3mph /  6.9km/h 6mph /  9.7km/h 65.1% 0in /  0.0mm
04:24 68 °F /  20 °C 55.9 °F /  13.3 °C 29.9in /  1011.8hPa SO 2.9mph /  4.6km/h 5mph /  8km/h 65.4% 0in /  0.0mm
04:29 67.8 °F /  19.9 °C 55.9 °F /  13.3 °C 29.9in /  1011.7hPa Oeste 2.4mph /  3.9km/h 5mph /  8km/h 66% 0in /  0.0mm
04:34 67.6 °F /  19.8 °C 55.9 °F /  13.3 °C 29.9in /  1011.7hPa Oeste 1.9mph /  3.1km/h 3mph /  4.8km/h 66.3% 0in /  0.0mm
04:39 67.5 °F /  19.7 °C 56.1 °F /  13.4 °C 29.9in /  1011.7hPa Oeste 1.8mph /  2.9km/h 2.4mph /  3.9km/h 67% 0in /  0.0mm
04:44 67.3 °F /  19.6 °C 55.9 °F /  13.3 °C 29.9in /  1011.6hPa Oeste 0.4mph /  0.7km/h 3.5mph /  5.6km/h 67% 0in /  0.0mm
04:49 67.3 °F /  19.6 °C 56.1 °F /  13.4 °C 29.9in /  1011.6hPa Calm   3mph /  4.8km/h 67.3% 0in /  0.0mm
04:54 67.3 °F /  19.6 °C 55.9 °F /  13.3 °C 29.9in /  1011.6hPa Sur 1.4mph /  2.2km/h 5.9mph /  9.5km/h 67% 0in /  0.0mm
04:59 67.5 °F /  19.7 °C 55.6 °F /  13.1 °C 29.9in /  1011.6hPa SSO 1.8mph /  2.9km/h 6.2mph /  10km/h 65.8% 0in /  0.0mm
05:04 67.6 °F /  19.8 °C 55.2 °F /  12.9 °C 29.9in /  1011.6hPa Sur 3.6mph /  5.8km/h 6mph /  9.7km/h 64.4% 0in /  0.0mm
05:09 67.8 °F /  19.9 °C 55 °F /  12.8 °C 29.9in /  1011.6hPa SO 4mph /  6.5km/h 6.2mph /  10km/h 63.5% 0in /  0.0mm
05:14 68 °F /  20 °C 55 °F /  12.8 °C 29.9in /  1011.6hPa SO 3.7mph /  6km/h 6mph /  9.7km/h 63.2% 0in /  0.0mm
05:19 67.8 °F /  19.9 °C 55 °F /  12.8 °C 29.9in /  1011.6hPa SSO 3.6mph /  5.8km/h 5.9mph /  9.5km/h 63.4% 0in /  0.0mm
05:24 67.8 °F /  19.9 °C 54.9 °F /  12.7 °C 29.9in /  1011.6hPa SO 3mph /  4.9km/h 6.9mph /  11.1km/h 62.9% 0in /  0.0mm
05:29 68 °F /  20 °C 54.5 °F /  12.5 °C 29.9in /  1011.6hPa SSO 2.9mph /  4.7km/h 9.2mph /  14.8km/h 62% 0in /  0.0mm
05:34 68.2 °F /  20.1 °C 54.7 °F /  12.6 °C 29.9in /  1011.6hPa SSO 4.8mph /  7.7km/h 9.2mph /  14.8km/h 62% 0in /  0.0mm
05:39 68.2 °F /  20.1 °C 54.3 °F /  12.4 °C 29.9in /  1011.6hPa SSO 5.4mph /  8.7km/h 10.4mph /  16.7km/h 61.1% 0in /  0.0mm
05:44 68.4 °F /  20.2 °C 54.1 °F /  12.3 °C 29.9in /  1011.6hPa SSO 5.4mph /  8.7km/h 10mph /  16.1km/h 60.3% 0in /  0.0mm
05:49 68.5 °F /  20.3 °C 54.1 °F /  12.3 °C 29.9in /  1011.6hPa SO 5.4mph /  8.7km/h 9mph /  14.5km/h 60% 0in /  0.0mm
05:54 68.5 °F /  20.3 °C 54.3 °F /  12.4 °C 29.9in /  1011.6hPa OSO 5.3mph /  8.5km/h 8mph /  12.9km/h 60.4% 0in /  0.0mm
05:59 68.2 °F /  20.1 °C 54.9 °F /  12.7 °C 29.9in /  1011.5hPa NO 5.2mph /  8.4km/h 6mph /  9.7km/h 62.8% 0in /  0.0mm
06:04 67.1 °F /  19.5 °C 54.9 °F /  12.7 °C 29.9in /  1011.5hPa ONO 3mph /  4.8km/h 5mph /  8km/h 65% 0in /  0.0mm
06:09 66.6 °F /  19.2 °C 54.9 °F /  12.7 °C 29.9in /  1011.5hPa Oeste 2.4mph /  3.9km/h 5mph /  8km/h 66.4% 0in /  0.0mm
06:14 66 °F /  18.9 °C 54.9 °F /  12.7 °C 29.9in /  1011.5hPa OSO 2.4mph /  3.9km/h 5.4mph /  8.7km/h 67.1% 0in /  0.0mm
06:19 65.8 °F /  18.8 °C 54.7 °F /  12.6 °C 29.9in /  1011.5hPa SSE 2.4mph /  3.9km/h 6mph /  9.7km/h 67.4% 0in /  0.0mm
06:24 65.7 °F /  18.7 °C 55 °F /  12.8 °C 29.9in /  1011.5hPa ESE 2.9mph /  4.7km/h 6.2mph /  10km/h 68.7% 0in /  0.0mm
06:29 64.9 °F /  18.3 °C 54.7 °F /  12.6 °C 29.9in /  1011.4hPa ESE 3.1mph /  5km/h 6mph /  9.7km/h 69.3% 0in /  0.0mm
06:34 64.6 °F /  18.1 °C 54.7 °F /  12.6 °C 29.9in /  1011.4hPa Este 2.5mph /  4.1km/h 5mph /  8km/h 70.3% 0in /  0.0mm
06:39 64.4 °F /  18 °C 54.9 °F /  12.7 °C 29.9in /  1011.4hPa ENE 2.4mph /  3.9km/h 5mph /  8km/h 71% 0in /  0.0mm
06:44 64.2 °F /  17.9 °C 54.7 °F /  12.6 °C 29.9in /  1011.4hPa NE 2.4mph /  3.9km/h 3.5mph /  5.6km/h 71% 0in /  0.0mm
06:49 64.4 °F /  18 °C 54.9 °F /  12.7 °C 29.9in /  1011.4hPa NO 2.4mph /  3.9km/h 4.6mph /  7.4km/h 70.8% 0in /  0.0mm
06:54 64.8 °F /  18.2 °C 54.7 °F /  12.6 °C 29.9in /  1011.4hPa OSO 2.1mph /  3.4km/h 6.2mph /  10km/h 70% 0in /  0.0mm
06:59 65.1 °F /  18.4 °C 54.7 °F /  12.6 °C 29.9in /  1011.2hPa SO 2mph /  3.2km/h 9.7mph /  15.6km/h 69% 0in /  0.0mm
07:04 66.2 °F /  19 °C 54.5 °F /  12.5 °C 29.9in /  1011.2hPa SO 3.9mph /  6.2km/h 10.7mph /  17.2km/h 66.1% 0in /  0.0mm
07:09 67.3 °F /  19.6 °C 54.5 °F /  12.5 °C 29.9in /  1011.2hPa SO 4.3mph /  6.9km/h 11mph /  17.7km/h 63.4% 0in /  0.0mm
07:14 67.6 °F /  19.8 °C 54.5 °F /  12.5 °C 29.9in /  1011.1hPa North 5.2mph /  8.3km/h 10mph /  16.1km/h 62.8% 0in /  0.0mm
07:19 67.3 °F /  19.6 °C 54.7 °F /  12.6 °C 29.9in /  1011.1hPa SSO 5.4mph /  8.7km/h 5mph /  8km/h 63.9% 0in /  0.0mm
07:24 66.7 °F /  19.3 °C 54.7 °F /  12.6 °C 29.9in /  1011.1hPa ENE 2.8mph /  4.5km/h 5.2mph /  8.4km/h 65.5% 0in /  0.0mm
07:29 65.8 °F /  18.8 °C 54.7 °F /  12.6 °C 29.9in /  1011.1hPa ESE 2mph /  3.2km/h 5.8mph /  9.3km/h 67.1% 0in /  0.0mm
07:34 65.3 °F /  18.5 °C 54.9 °F /  12.7 °C 29.9in /  1011.1hPa SE 2.7mph /  4.3km/h 6mph /  9.7km/h 68.7% 0in /  0.0mm
07:39 64.9 °F /  18.3 °C 54.7 °F /  12.6 °C 29.9in /  1011.2hPa SE 2.9mph /  4.7km/h 5.2mph /  8.4km/h 69.4% 0in /  0.0mm
07:44 64.8 °F /  18.2 °C 54.7 °F /  12.6 °C 29.9in /  1011.2hPa SSE 2.9mph /  4.7km/h 5mph /  8km/h 70% 0in /  0.0mm
07:49 64.6 °F /  18.1 °C 54.7 °F /  12.6 °C 29.9in /  1011.2hPa Sur 2.9mph /  4.7km/h 5mph /  8km/h 70.4% 0in /  0.0mm
07:54 64.8 °F /  18.2 °C 54.9 °F /  12.7 °C 29.9in /  1011.2hPa SO 2.5mph /  4km/h 5.8mph /  9.3km/h 70% 0in /  0.0mm
07:59 64.9 °F /  18.3 °C 54.7 °F /  12.6 °C 29.9in /  1011.1hPa OSO 2.4mph /  3.9km/h 6mph /  9.7km/h 69.3% 0in /  0.0mm
08:04 65.5 °F /  18.6 °C 54.7 °F /  12.6 °C 29.9in /  1011.1hPa SO 2.8mph /  4.5km/h 5.8mph /  9.3km/h 68% 0in /  0.0mm
08:09 66.2 °F /  19 °C 54.7 °F /  12.6 °C 29.9in /  1011.1hPa SSO 2.9mph /  4.7km/h 6.9mph /  11.1km/h 66.5% 0in /  0.0mm
08:14 66.7 °F /  19.3 °C 55 °F /  12.8 °C 29.9in /  1011.1hPa SSE 3.7mph /  6km/h 7mph /  11.3km/h 66% 0in /  0.0mm
08:19 66.7 °F /  19.3 °C 55.2 °F /  12.9 °C 29.9in /  1011.1hPa Sur 4mph /  6.5km/h 7mph /  11.3km/h 66.5% 0in /  0.0mm
08:24 66.7 °F /  19.3 °C 55.2 °F /  12.9 °C 29.9in /  1011.2hPa Sur 4.2mph /  6.8km/h 7mph /  11.3km/h 66.4% 0in /  0.0mm
08:29 67.1 °F /  19.5 °C 55.2 °F /  12.9 °C 29.9in /  1011.2hPa Sur 4.3mph /  6.9km/h 9.2mph /  14.8km/h 65.7% 0in /  0.0mm
08:34 67.6 °F /  19.8 °C 55.2 °F /  12.9 °C 29.9in /  1011.2hPa SSO 4.6mph /  7.4km/h 9.2mph /  14.8km/h 64.5% 0in /  0.0mm
08:39 68.2 °F /  20.1 °C 55.2 °F /  12.9 °C 29.9in /  1011.2hPa SSO 4.7mph /  7.6km/h 9mph /  14.5km/h 63.4% 0in /  0.0mm
08:44 68.5 °F /  20.3 °C 55.2 °F /  12.9 °C 29.9in /  1011.1hPa SSO 4.7mph /  7.6km/h 7mph /  11.3km/h 62.7% 0in /  0.0mm
08:49 68.7 °F /  20.4 °C 55.2 °F /  12.9 °C 29.9in /  1011.1hPa Sur 4.7mph /  7.6km/h 7mph /  11.3km/h 62.1% 0in /  0.0mm
08:54 69.1 °F /  20.6 °C 55.8 °F /  13.2 °C 29.9in /  1011.2hPa SSO 2.9mph /  4.7km/h 5mph /  8km/h 62.6% 0in /  0.0mm
08:59 69.4 °F /  20.8 °C 56.1 °F /  13.4 °C 29.9in /  1011.2hPa NO 2.4mph /  3.9km/h 4.6mph /  7.4km/h 62.7% 0in /  0.0mm
09:04 69.6 °F /  20.9 °C 56.1 °F /  13.4 °C 29.9in /  1011.2hPa ONO 2.1mph /  3.3km/h 5mph /  8km/h 62.2% 0in /  0.0mm
09:09 69.6 °F /  20.9 °C 56.1 °F /  13.4 °C 29.9in /  1011.4hPa ONO 2mph /  3.2km/h 6.2mph /  10km/h 62.3% 0in /  0.0mm
09:14 69.4 °F /  20.8 °C 56.1 °F /  13.4 °C 29.9in /  1011.4hPa Oeste 2.7mph /  4.3km/h 6.2mph /  10km/h 62.5% 0in /  0.0mm
09:19 69.4 °F /  20.8 °C 55.9 °F /  13.3 °C 29.9in /  1011.4hPa OSO 2.9mph /  4.7km/h 6.9mph /  11.1km/h 61.8% 0in /  0.0mm
09:24 69.8 °F /  21 °C 55.6 °F /  13.1 °C 29.9in /  1011.4hPa OSO 3.7mph /  6km/h 7mph /  11.3km/h 60.7% 0in /  0.0mm
09:29 70.3 °F /  21.3 °C 55.4 °F /  13 °C 29.9in /  1011.3hPa SO 4mph /  6.5km/h 6mph /  9.7km/h 59.2% 0in /  0.0mm
09:34 70.9 °F /  21.6 °C 55.4 °F /  13 °C 29.9in /  1011.3hPa SO 4mph /  6.5km/h 6.2mph /  10km/h 58% 0in /  0.0mm
09:39 71.4 °F /  21.9 °C 55.2 °F /  12.9 °C 29.9in /  1011.3hPa OSO 4mph /  6.5km/h 6.4mph /  10.3km/h 56.5% 0in /  0.0mm
09:44 72 °F /  22.2 °C 55.4 °F /  13 °C 29.9in /  1011.2hPa Oeste 3.3mph /  5.3km/h 7mph /  11.3km/h 55.9% 0in /  0.0mm
09:49 72.1 °F /  22.3 °C 55.2 °F /  12.9 °C 29.9in /  1011.2hPa OSO 3.1mph /  5km/h 7mph /  11.3km/h 55% 0in /  0.0mm
09:54 72.3 °F /  22.4 °C 55.2 °F /  12.9 °C 29.9in /  1011.2hPa SSO 3.8mph /  6.1km/h 6mph /  9.7km/h 55.1% 0in /  0.0mm
09:59 72.5 °F /  22.5 °C 56.8 °F /  13.8 °C 29.9in /  1011.2hPa SSE 4mph /  6.5km/h 6mph /  9.7km/h 57.6% 0in /  0.0mm
10:04 72.3 °F /  22.4 °C 57.2 °F /  14 °C 29.9in /  1011.2hPa Sur 3.7mph /  5.9km/h 6mph /  9.7km/h 59% 0in /  0.0mm
10:09 72.1 °F /  22.3 °C 57.4 °F /  14.1 °C 29.9in /  1011.3hPa SSE 3.6mph /  5.8km/h 6mph /  9.7km/h 59.8% 0in /  0.0mm
10:14 72 °F /  22.2 °C 57.2 °F /  14 °C 29.9in /  1011.3hPa SSO 3mph /  4.9km/h 6.9mph /  11.1km/h 59.9% 0in /  0.0mm
10:19 72 °F /  22.2 °C 55.9 °F /  13.3 °C 29.9in /  1011.3hPa OSO 2.9mph /  4.7km/h 10.4mph /  16.7km/h 57.1% 0in /  0.0mm
10:24 72.3 °F /  22.4 °C 55.8 °F /  13.2 °C 29.9in /  1011.4hPa OSO 4.7mph /  7.5km/h 12.3mph /  19.8km/h 56% 0in /  0.0mm
10:29 72.5 °F /  22.5 °C 55.9 °F /  13.3 °C 29.9in /  1011.4hPa OSO 5.2mph /  8.4km/h 13mph /  20.9km/h 55.9% 0in /  0.0mm
10:34 72.7 °F /  22.6 °C 56.1 °F /  13.4 °C 29.9in /  1011.4hPa OSO 6mph /  9.6km/h 13mph /  20.9km/h 56% 0in /  0.0mm
10:39 72.7 °F /  22.6 °C 56.1 °F /  13.4 °C 29.9in /  1011.4hPa OSO 6.2mph /  10km/h 13mph /  20.9km/h 56% 0in /  0.0mm
10:44 72.7 °F /  22.6 °C 56.3 °F /  13.5 °C 29.9in /  1011.2hPa OSO 6.7mph /  10.8km/h 11.5mph /  18.5km/h 56.3% 0in /  0.0mm
10:49 72.7 °F /  22.6 °C 56.7 °F /  13.7 °C 29.9in /  1011.2hPa SO 6.9mph /  11.1km/h 12.5mph /  20.1km/h 57.1% 0in /  0.0mm
10:54 72.7 °F /  22.6 °C 56.8 °F /  13.8 °C 29.9in /  1011.2hPa SO 7.3mph /  11.7km/h 13mph /  20.9km/h 57.4% 0in /  0.0mm
10:59 72.7 °F /  22.6 °C 56.8 °F /  13.8 °C 29.9in /  1011.1hPa SO 7.4mph /  11.9km/h 15mph /  24.1km/h 57.9% 0in /  0.0mm
11:04 72.5 °F /  22.5 °C 56.5 °F /  13.6 °C 29.9in /  1011.1hPa SO 8mph /  12.8km/h 17.3mph /  27.8km/h 56.9% 0in /  0.0mm
11:09 72.7 °F /  22.6 °C 56.7 °F /  13.7 °C 29.9in /  1011.1hPa SO 8.1mph /  13km/h 17mph /  27.4km/h 57% 0in /  0.0mm
11:14 72.7 °F /  22.6 °C 56.3 °F /  13.5 °C 29.9in /  1011.1hPa SO 7.7mph /  12.4km/h 13mph /  20.9km/h 56.4% 0in /  0.0mm
11:19 72.7 °F /  22.6 °C 56.1 °F /  13.4 °C 29.9in /  1011.1hPa SO 7.6mph /  12.2km/h 13mph /  20.9km/h 56% 0in /  0.0mm
11:24 72.9 °F /  22.7 °C 56.1 °F /  13.4 °C 29.9in /  1011.1hPa SO 7.6mph /  12.2km/h 14mph /  22.5km/h 55.8% 0in /  0.0mm
11:29 72.9 °F /  22.7 °C 55.6 °F /  13.1 °C 29.9in /  1011.0hPa OSO 7.6mph /  12.2km/h 15mph /  24.1km/h 54.6% 0in /  0.0mm
11:34 73 °F /  22.8 °C 55 °F /  12.8 °C 29.9in /  1011.0hPa OSO 8.9mph /  14.3km/h 15mph /  24.1km/h 53.2% 0in /  0.0mm
11:39 73.2 °F /  22.9 °C 55.2 °F /  12.9 °C 29.9in /  1011.0hPa OSO 9.2mph /  14.8km/h 14mph /  22.5km/h 53% 0in /  0.0mm
11:44 73.6 °F /  23.1 °C 55.2 °F /  12.9 °C 29.9in /  1011.0hPa OSO 8mph /  12.8km/h 14mph /  22.5km/h 52.6% 0in /  0.0mm
11:49 73.6 °F /  23.1 °C 55 °F /  12.8 °C 29.9in /  1011.0hPa OSO 7.6mph /  12.2km/h 14mph /  22.5km/h 52.5% 0in /  0.0mm
11:54 73.6 °F /  23.1 °C 55.4 °F /  13 °C 29.9in /  1011.0hPa OSO 7.5mph /  12km/h 12mph /  19.3km/h 53% 0in /  0.0mm
11:59 73.8 °F /  23.2 °C 55.6 °F /  13.1 °C 29.8in /  1010.6hPa OSO 7.4mph /  11.9km/h 10.4mph /  16.7km/h 53% 0in /  0.0mm
12:04 73.8 °F /  23.2 °C 55.4 °F /  13 °C 29.8in /  1010.6hPa SO 5.8mph /  9.3km/h 10.4mph /  16.7km/h 52.6% 0in /  0.0mm
12:09 73.8 °F /  23.2 °C 55.4 °F /  13 °C 29.8in /  1010.6hPa SO 5.4mph /  8.7km/h 12.3mph /  19.8km/h 52.5% 0in /  0.0mm
12:14 73.8 °F /  23.2 °C 55.4 °F /  13 °C 29.8in /  1010.4hPa SO 6.2mph /  10km/h 13mph /  20.9km/h 52.6% 0in /  0.0mm
12:19 73.8 °F /  23.2 °C 55.6 °F /  13.1 °C 29.8in /  1010.4hPa SO 6.4mph /  10.3km/h 13mph /  20.9km/h 53% 0in /  0.0mm
12:24 73.9 °F /  23.3 °C 55.8 °F /  13.2 °C 29.8in /  1010.4hPa SO 6.8mph /  10.9km/h 12mph /  19.3km/h 53% 0in /  0.0mm
12:29 74.1 °F /  23.4 °C 55.8 °F /  13.2 °C 29.8in /  1010.1hPa SO 6.9mph /  11.1km/h 9.2mph /  14.8km/h 53% 0in /  0.0mm
12:34 74.1 °F /  23.4 °C 55.9 °F /  13.3 °C 29.8in /  1010.1hPa SSO 6.1mph /  9.8km/h 9.2mph /  14.8km/h 53% 0in /  0.0mm
12:39 74.1 °F /  23.4 °C 55.9 °F /  13.3 °C 29.8in /  1010.1hPa SSO 5.9mph /  9.5km/h 9.7mph /  15.6km/h 53% 0in /  0.0mm
12:44 74.1 °F /  23.4 °C 55.9 °F /  13.3 °C 29.8in /  1009.9hPa SO 6.2mph /  9.9km/h 10mph /  16.1km/h 53.1% 0in /  0.0mm
12:49 74.3 °F /  23.5 °C 56.1 °F /  13.4 °C 29.8in /  1009.9hPa SSO 6.2mph /  10km/h 10.4mph /  16.7km/h 53.1% 0in /  0.0mm
12:54 74.7 °F /  23.7 °C 56.3 °F /  13.5 °C 29.8in /  1009.9hPa SSO 5.6mph /  9km/h 10.7mph /  17.2km/h 52.8% 0in /  0.0mm
12:59 75.2 °F /  24 °C 56.3 °F /  13.5 °C 29.8in /  1009.6hPa SO 5.4mph /  8.7km/h 11mph /  17.7km/h 52% 0in /  0.0mm
13:04 75.6 °F /  24.2 °C 56.3 °F /  13.5 °C 29.8in /  1009.6hPa SO 5.4mph /  8.7km/h 12.7mph /  20.4km/h 51.1% 0in /  0.0mm
13:09 75.7 °F /  24.3 °C 56.3 °F /  13.5 °C 29.8in /  1009.6hPa SSO 5.4mph /  8.7km/h 15mph /  24.1km/h 51% 0in /  0.0mm
13:14 75.9 °F /  24.4 °C 56.1 °F /  13.4 °C 29.8in /  1009.1hPa SSO 7mph /  11.2km/h 15mph /  24.1km/h 50.3% 0in /  0.0mm
13:19 76.1 °F /  24.5 °C 55.9 °F /  13.3 °C 29.8in /  1009.1hPa SSO 7.4mph /  11.9km/h 12mph /  19.3km/h 49.9% 0in /  0.0mm
13:24 76.5 °F /  24.7 °C 56.3 °F /  13.5 °C 29.8in /  1009.1hPa SSO 6.6mph /  10.7km/h 12mph /  19.3km/h 49.6% 0in /  0.0mm
13:29 76.8 °F /  24.9 °C 55.2 °F /  12.9 °C 29.8in /  1008.8hPa SSO 6.4mph /  10.3km/h 17.3mph /  27.8km/h 47.2% 0in /  0.0mm
13:34 76.8 °F /  24.9 °C 54.5 °F /  12.5 °C 29.8in /  1008.8hPa SSO 8mph /  12.9km/h 17mph /  27.4km/h 46% 0in /  0.0mm
13:39 77.2 °F /  25.1 °C 54.5 °F /  12.5 °C 29.8in /  1008.8hPa SSO 8.5mph /  13.7km/h 16.3mph /  26.2km/h 45.4% 0in /  0.0mm
13:44 77.2 °F /  25.1 °C 54.7 °F /  12.6 °C 29.8in /  1008.5hPa SSO 8.6mph /  13.9km/h 16.1mph /  25.9km/h 45.7% 0in /  0.0mm
13:49 77.2 °F /  25.1 °C 55.4 °F /  13 °C 29.8in /  1008.5hPa SSO 8.7mph /  14km/h 16.1mph /  25.9km/h 46.9% 0in /  0.0mm
13:54 77.2 °F /  25.1 °C 55.4 °F /  13 °C 29.8in /  1008.5hPa SSO 9.7mph /  15.6km/h 16mph /  25.7km/h 46.9% 0in /  0.0mm
13:59 77.4 °F /  25.2 °C 55 °F /  12.8 °C 29.8in /  1008.4hPa SSO 10mph /  16.1km/h 15mph /  24.1km/h 46.1% 0in /  0.0mm
14:04 77.5 °F /  25.3 °C 55.2 °F /  12.9 °C 29.8in /  1008.4hPa SO 9.3mph /  15km/h 16.3mph /  26.2km/h 46% 0in /  0.0mm
14:09 77.7 °F /  25.4 °C 55.2 °F /  12.9 °C 29.8in /  1008.4hPa SO 9.2mph /  14.8km/h 16mph /  25.7km/h 46% 0in /  0.0mm
14:14 78.1 °F /  25.6 °C 55 °F /  12.8 °C 29.8in /  1008.1hPa SO 8.3mph /  13.4km/h 15mph /  24.1km/h 45% 0in /  0.0mm
14:19 78.3 °F /  25.7 °C 54.9 °F /  12.7 °C 29.8in /  1008.1hPa OSO 8.1mph /  13km/h 15mph /  24.1km/h 44.4% 0in /  0.0mm
14:24 78.4 °F /  25.8 °C 54.7 °F /  12.6 °C 29.8in /  1008.1hPa OSO 7.1mph /  11.5km/h 12mph /  19.3km/h 44% 0in /  0.0mm
14:29 78.6 °F /  25.9 °C 54.7 °F /  12.6 °C 29.8in /  1007.8hPa SO 6.9mph /  11.1km/h 12.7mph /  20.4km/h 43.8% 0in /  0.0mm
14:34 79.2 °F /  26.2 °C 54.9 °F /  12.7 °C 29.8in /  1007.8hPa OSO 6.3mph /  10.2km/h 13mph /  20.9km/h 43.4% 0in /  0.0mm
14:39 79.3 °F /  26.3 °C 54.9 °F /  12.7 °C 29.8in /  1007.8hPa ONO 6.2mph /  10km/h 10mph /  16.1km/h 43% 0in /  0.0mm
14:44 79.3 °F /  26.3 °C 54.9 °F /  12.7 °C 29.8in /  1007.6hPa Oeste 5.6mph /  9km/h 9.2mph /  14.8km/h 42.9% 0in /  0.0mm
14:49 79.7 °F /  26.5 °C 54 °F /  12.2 °C 29.8in /  1007.6hPa SO 5.4mph /  8.7km/h 21.3mph /  34.3km/h 41.1% 0in /  0.0mm
14:54 80.4 °F /  26.9 °C 51.4 °F /  10.8 °C 29.8in /  1007.6hPa SO 7.5mph /  12.1km/h 21mph /  33.8km/h 36.7% 0in /  0.0mm
14:59 80.8 °F /  27.1 °C 50 °F /  10 °C 29.8in /  1007.5hPa OSO 8.1mph /  13km/h 24.2mph /  38.9km/h 34.3% 0in /  0.0mm
15:04 80.4 °F /  26.9 °C 49.5 °F /  9.7 °C 29.8in /  1007.5hPa SO 11.6mph /  18.7km/h 24.6mph /  39.6km/h 34% 0in /  0.0mm
15:09 80.8 °F /  27.1 °C 49.6 °F /  9.8 °C 29.8in /  1007.5hPa OSO 12.5mph /  20.1km/h 25mph /  40.2km/h 34% 0in /  0.0mm
15:14 80.8 °F /  27.1 °C 49.3 °F /  9.6 °C 29.8in /  1007.4hPa SO 10.7mph /  17.2km/h 20.8mph /  33.5km/h 33.4% 0in /  0.0mm
15:19 80.8 °F /  27.1 °C 48.6 °F /  9.2 °C 29.8in /  1007.4hPa SO 10.2mph /  16.4km/h 25.3mph /  40.7km/h 32.5% 0in /  0.0mm
15:24 81 °F /  27.2 °C 48.4 °F /  9.1 °C 29.8in /  1007.4hPa OSO 12.8mph /  20.6km/h 25mph /  40.2km/h 32% 0in /  0.0mm
15:29 81 °F /  27.2 °C 48.6 °F /  9.2 °C 29.7in /  1007.1hPa OSO 13.5mph /  21.7km/h 26.5mph /  42.6km/h 32.2% 0in /  0.0mm
15:34 81 °F /  27.2 °C 49.1 °F /  9.5 °C 29.7in /  1007.1hPa SO 12.6mph /  20.2km/h 26mph /  41.8km/h 33% 0in /  0.0mm
15:39 80.8 °F /  27.1 °C 49.1 °F /  9.5 °C 29.7in /  1007.1hPa OSO 12.3mph /  19.8km/h 19mph /  30.6km/h 33% 0in /  0.0mm
15:44 80.8 °F /  27.1 °C 48.9 °F /  9.4 °C 29.7in /  1007.1hPa OSO 11.4mph /  18.4km/h 20.7mph /  33.3km/h 33% 0in /  0.0mm
15:49 80.8 °F /  27.1 °C 48.9 °F /  9.4 °C 29.7in /  1007.1hPa OSO 11.2mph /  18km/h 21mph /  33.8km/h 33% 0in /  0.0mm
15:54 80.8 °F /  27.1 °C 48.9 °F /  9.4 °C 29.7in /  1007.1hPa SO 10.9mph /  17.5km/h 20mph /  32.2km/h 33% 0in /  0.0mm
15:59 80.8 °F /  27.1 °C 48.9 °F /  9.4 °C 29.7in /  1007.0hPa SO 10.7mph /  17.2km/h 20mph /  32.2km/h 33% 0in /  0.0mm
16:04 80.4 °F /  26.9 °C 48.7 °F /  9.3 °C 29.7in /  1007.0hPa SO 10.1mph /  16.3km/h 17.3mph /  27.8km/h 33% 0in /  0.0mm
16:09 80.4 °F /  26.9 °C 48.6 °F /  9.2 °C 29.7in /  1007.0hPa OSO 10mph /  16.1km/h 17mph /  27.4km/h 33% 0in /  0.0mm
16:14 80.4 °F /  26.9 °C 48.7 °F /  9.3 °C 29.7in /  1006.9hPa OSO 8.8mph /  14.2km/h 15mph /  24.1km/h 33% 0in /  0.0mm
16:19 80.4 °F /  26.9 °C 48.7 °F /  9.3 °C 29.7in /  1006.9hPa SO 8.5mph /  13.7km/h 20.1mph /  32.3km/h 33% 0in /  0.0mm
16:24 80.6 °F /  27 °C 48.7 °F /  9.3 °C 29.7in /  1006.9hPa SO 8.6mph /  13.9km/h 21mph /  33.8km/h 33% 0in /  0.0mm
16:29 80.4 °F /  26.9 °C 48.7 °F /  9.3 °C 29.7in /  1006.7hPa SO 8.7mph /  14km/h 20mph /  32.2km/h 33% 0in /  0.0mm
16:34 80.4 °F /  26.9 °C 48.7 °F /  9.3 °C 29.7in /  1006.7hPa SO 9.7mph /  15.6km/h 17.5mph /  28.2km/h 33% 0in /  0.0mm
16:39 80.4 °F /  26.9 °C 48.7 °F /  9.3 °C 29.7in /  1006.7hPa SO 10mph /  16.1km/h 17mph /  27.4km/h 33% 0in /  0.0mm
16:44 80.4 °F /  26.9 °C 48.7 °F /  9.3 °C 29.7in /  1006.5hPa SO 8.8mph /  14.2km/h 15mph /  24.1km/h 33% 0in /  0.0mm
16:49 80.2 °F /  26.8 °C 48 °F /  8.9 °C 29.7in /  1006.5hPa SO 8.5mph /  13.7km/h 20.8mph /  33.5km/h 32.3% 0in /  0.0mm
16:54 80.1 °F /  26.7 °C 47.7 °F /  8.7 °C 29.7in /  1006.5hPa SO 9.4mph /  15.2km/h 21mph /  33.8km/h 32% 0in /  0.0mm
16:59 80.1 °F /  26.7 °C 47.7 °F /  8.7 °C 29.7in /  1006.4hPa OSO 9.7mph /  15.6km/h 18.4mph /  29.6km/h 32.2% 0in /  0.0mm
17:04 79.9 °F /  26.6 °C 48.2 °F /  9 °C 29.7in /  1006.4hPa OSO 9.9mph /  16km/h 18mph /  29km/h 33% 0in /  0.0mm
17:09 79.9 °F /  26.6 °C 48.2 °F /  9 °C 29.7in /  1006.4hPa OSO 10mph /  16.1km/h 16mph /  25.7km/h 33% 0in /  0.0mm
17:14 79.9 °F /  26.6 °C 48.9 °F /  9.4 °C 29.7in /  1006.3hPa SO 8mph /  12.8km/h 12mph /  19.3km/h 33.9% 0in /  0.0mm
17:19 79.7 °F /  26.5 °C 48.7 °F /  9.3 °C 29.7in /  1006.3hPa SO 7.4mph /  11.9km/h 18.4mph /  29.6km/h 34% 0in /  0.0mm
17:24 79.3 °F /  26.3 °C 49.1 °F /  9.5 °C 29.7in /  1006.3hPa SO 7.4mph /  11.9km/h 18mph /  29km/h 34.9% 0in /  0.0mm
17:29 79 °F /  26.1 °C 48.9 °F /  9.4 °C 29.7in /  1006.2hPa OSO 7.4mph /  11.9km/h 17.3mph /  27.8km/h 35% 0in /  0.0mm
17:34 78.6 °F /  25.9 °C 48.7 °F /  9.3 °C 29.7in /  1006.2hPa OSO 8.8mph /  14.1km/h 17mph /  27.4km/h 35% 0in /  0.0mm
17:39 78.4 °F /  25.8 °C 48.6 °F /  9.2 °C 29.7in /  1006.3hPa OSO 9.2mph /  14.8km/h 23.5mph /  37.8km/h 35% 0in /  0.0mm
17:44 78.3 °F /  25.7 °C 48.4 °F /  9.1 °C 29.7in /  1006.3hPa OSO 10mph /  16.1km/h 23mph /  37km/h 35% 0in /  0.0mm
17:49 78.1 °F /  25.6 °C 48.2 °F /  9 °C 29.7in /  1006.3hPa SO 10.2mph /  16.4km/h 21mph /  33.8km/h 35% 0in /  0.0mm
17:54 77.9 °F /  25.5 °C 48.7 °F /  9.3 °C 29.7in /  1006.4hPa OSO 9.4mph /  15.2km/h 15mph /  24.1km/h 35.9% 0in /  0.0mm
17:59 77.5 °F /  25.3 °C 48.6 °F /  9.2 °C 29.7in /  1006.4hPa OSO 9.2mph /  14.8km/h 16.1mph /  25.9km/h 36% 0in /  0.0mm
18:04 77.4 °F /  25.2 °C 48.9 °F /  9.4 °C 29.7in /  1006.4hPa OSO 9.2mph /  14.8km/h 16.3mph /  26.2km/h 36.9% 0in /  0.0mm
18:09 77 °F /  25 °C 48.7 °F /  9.3 °C 29.7in /  1006.5hPa OSO 9.2mph /  14.8km/h 18.5mph /  29.8km/h 37% 0in /  0.0mm
18:14 76.6 °F /  24.8 °C 48.9 °F /  9.4 °C 29.7in /  1006.5hPa Oeste 10.4mph /  16.7km/h 19mph /  30.6km/h 37.6% 0in /  0.0mm
18:19 76.5 °F /  24.7 °C 48.9 °F /  9.4 °C 29.7in /  1006.5hPa Oeste 10.7mph /  17.2km/h 18.4mph /  29.6km/h 38% 0in /  0.0mm
18:24 75.9 °F /  24.4 °C 49.1 °F /  9.5 °C 29.7in /  1006.6hPa Oeste 9mph /  14.5km/h 18mph /  29km/h 38.7% 0in /  0.0mm
18:29 75.9 °F /  24.4 °C 49.3 °F /  9.6 °C 29.7in /  1006.6hPa Oeste 8.5mph /  13.7km/h 16.1mph /  25.9km/h 39% 0in /  0.0mm
18:34 75.9 °F /  24.4 °C 49.3 °F /  9.6 °C 29.7in /  1006.6hPa Oeste 8.2mph /  13.2km/h 16mph /  25.7km/h 39% 0in /  0.0mm
18:39 75.7 °F /  24.3 °C 49.1 °F /  9.5 °C 29.7in /  1006.7hPa Oeste 8.1mph /  13km/h 15mph /  24.1km/h 39% 0in /  0.0mm
18:44 75.6 °F /  24.2 °C 48.9 °F /  9.4 °C 29.7in /  1006.7hPa Oeste 6.6mph /  10.6km/h 12mph /  19.3km/h 39% 0in /  0.0mm
18:49 75.4 °F /  24.1 °C 49.5 °F /  9.7 °C 29.7in /  1006.7hPa Oeste 6.2mph /  10km/h 8.1mph /  13km/h 40% 0in /  0.0mm
18:54 75 °F /  23.9 °C 49.1 °F /  9.5 °C 29.7in /  1006.7hPa Oeste 5mph /  8.1km/h 8mph /  12.9km/h 40% 0in /  0.0mm
18:59 74.8 °F /  23.8 °C 49.3 °F /  9.6 °C 29.7in /  1006.4hPa Oeste 4.7mph /  7.6km/h 8.1mph /  13km/h 40.4% 0in /  0.0mm
19:04 74.7 °F /  23.7 °C 49.5 °F /  9.7 °C 29.7in /  1006.4hPa SO 4.2mph /  6.7km/h 8mph /  12.9km/h 41% 0in /  0.0mm
19:09 74.5 °F /  23.6 °C 49.3 °F /  9.6 °C 29.7in /  1006.7hPa Sur 4mph /  6.5km/h 6mph /  9.7km/h 41% 0in /  0.0mm
19:14 74.3 °F /  23.5 °C 49.8 °F /  9.9 °C 29.7in /  1006.7hPa Sur 3.7mph /  6km/h 6.4mph /  10.3km/h 42% 0in /  0.0mm
19:19 73.9 °F /  23.3 °C 50 °F /  10 °C 29.7in /  1006.7hPa Sur 3.6mph /  5.8km/h 8.1mph /  13km/h 43% 0in /  0.0mm
19:24 73.6 °F /  23.1 °C 49.6 °F /  9.8 °C 29.7in /  1006.8hPa SO 4.4mph /  7.1km/h 8.5mph /  13.7km/h 43% 0in /  0.0mm
19:29 73.4 °F /  23 °C 49.5 °F /  9.7 °C 29.7in /  1006.8hPa SO 4.7mph /  7.6km/h 9.2mph /  14.8km/h 43% 0in /  0.0mm
19:34 73.6 °F /  23.1 °C 49.6 °F /  9.8 °C 29.7in /  1006.8hPa SO 5.1mph /  8.2km/h 9mph /  14.5km/h 43% 0in /  0.0mm
19:39 73.8 °F /  23.2 °C 49.8 °F /  9.9 °C 29.7in /  1006.8hPa OSO 5.2mph /  8.4km/h 9.2mph /  14.8km/h 43% 0in /  0.0mm
19:44 73.8 °F /  23.2 °C 49.8 °F /  9.9 °C 29.7in /  1006.7hPa SO 5.3mph /  8.6km/h 8mph /  12.9km/h 43% 0in /  0.0mm
19:49 73.6 °F /  23.1 °C 49.6 °F /  9.8 °C 29.7in /  1006.7hPa SO 5.4mph /  8.7km/h 8.1mph /  13km/h 43% 0in /  0.0mm
19:54 73.6 °F /  23.1 °C 49.6 °F /  9.8 °C 29.7in /  1006.8hPa SO 5.3mph /  8.5km/h 9.2mph /  14.8km/h 43% 0in /  0.0mm
19:59 73.4 °F /  23 °C 50.2 °F /  10.1 °C 29.7in /  1006.8hPa SO 5.2mph /  8.4km/h 9mph /  14.5km/h 43.9% 0in /  0.0mm
20:04 73.2 °F /  22.9 °C 50 °F /  10 °C 29.7in /  1006.8hPa SSO 5.2mph /  8.4km/h 9mph /  14.5km/h 44% 0in /  0.0mm
20:09 73.2 °F /  22.9 °C 50 °F /  10 °C 29.7in /  1006.8hPa SSO 5.2mph /  8.4km/h 8mph /  12.9km/h 44% 0in /  0.0mm
20:14 73 °F /  22.8 °C 49.8 °F /  9.9 °C 29.7in /  1006.7hPa SO 4.5mph /  7.2km/h 9.2mph /  14.8km/h 44% 0in /  0.0mm
20:19 72.9 °F /  22.7 °C 49.6 °F /  9.8 °C 29.7in /  1006.7hPa SO 4.3mph /  6.9km/h 9mph /  14.5km/h 44% 0in /  0.0mm
20:24 72.9 °F /  22.7 °C 49.6 °F /  9.8 °C 29.7in /  1006.7hPa SSO 4.6mph /  7.4km/h 8.1mph /  13km/h 44% 0in /  0.0mm
20:29 72.7 °F /  22.6 °C 50.4 °F /  10.2 °C 29.7in /  1006.6hPa SSE 4.7mph /  7.6km/h 8mph /  12.9km/h 45.6% 0in /  0.0mm
20:34 72 °F /  22.2 °C 50.9 °F /  10.5 °C 29.7in /  1006.6hPa SE 3.5mph /  5.6km/h 5.2mph /  8.4km/h 47.6% 0in /  0.0mm
20:39 70.9 °F /  21.6 °C 50.7 °F /  10.4 °C 29.7in /  1006.6hPa SE 3.1mph /  5km/h 8.1mph /  13km/h 49% 0in /  0.0mm
20:44 70.2 °F /  21.2 °C 50.5 °F /  10.3 °C 29.7in /  1006.5hPa SE 3.5mph /  5.6km/h 8.5mph /  13.7km/h 50% 0in /  0.0mm
20:49 69.6 °F /  20.9 °C 50.2 °F /  10.1 °C 29.7in /  1006.5hPa SSE 3.6mph /  5.8km/h 11.2mph /  18km/h 50% 0in /  0.0mm
20:54 69.4 °F /  20.8 °C 50.2 °F /  10.1 °C 29.7in /  1006.5hPa SE 5.8mph /  9.3km/h 13mph /  20.9km/h 50% 0in /  0.0mm
20:59 70 °F /  21.1 °C 50 °F /  10 °C 29.7in /  1006.5hPa Sur 6.4mph /  10.3km/h 13mph /  20.9km/h 49.2% 0in /  0.0mm
21:04 70.3 °F /  21.3 °C 50 °F /  10 °C 29.7in /  1006.5hPa Sur 7.2mph /  11.6km/h 13mph /  20.9km/h 48.6% 0in /  0.0mm
21:09 70.5 °F /  21.4 °C 49.8 °F /  9.9 °C 29.7in /  1006.5hPa SSO 7.4mph /  11.9km/h 10.7mph /  17.2km/h 48% 0in /  0.0mm
21:14 71.1 °F /  21.7 °C 50.4 °F /  10.2 °C 29.7in /  1006.5hPa SSO 5.8mph /  9.4km/h 11mph /  17.7km/h 48% 0in /  0.0mm
21:19 71.2 °F /  21.8 °C 50.5 °F /  10.3 °C 29.7in /  1006.5hPa SSO 5.4mph /  8.7km/h 10mph /  16.1km/h 48% 0in /  0.0mm
21:24 71.2 °F /  21.8 °C 50.5 °F /  10.3 °C 29.7in /  1006.5hPa SSO 5.3mph /  8.5km/h 9.2mph /  14.8km/h 48% 0in /  0.0mm
21:29 71.4 °F /  21.9 °C 50.7 °F /  10.4 °C 29.7in /  1006.4hPa SSO 5.2mph /  8.4km/h 9.2mph /  14.8km/h 48% 0in /  0.0mm
21:34 71.6 °F /  22 °C 50.9 °F /  10.5 °C 29.7in /  1006.4hPa SSO 5.3mph /  8.6km/h 8.5mph /  13.7km/h 48% 0in /  0.0mm
21:39 71.4 °F /  21.9 °C 50.7 °F /  10.4 °C 29.7in /  1006.4hPa Sur 5.4mph /  8.7km/h 9mph /  14.5km/h 48% 0in /  0.0mm
21:44 71.4 °F /  21.9 °C 50.7 °F /  10.4 °C 29.7in /  1006.2hPa Sur 4.5mph /  7.3km/h 9.2mph /  14.8km/h 48% 0in /  0.0mm
21:49 71.4 °F /  21.9 °C 50.7 °F /  10.4 °C 29.7in /  1006.2hPa SSO 4.3mph /  6.9km/h 12.7mph /  20.4km/h 48% 0in /  0.0mm
21:54 71.6 °F /  22 °C 50.9 °F /  10.5 °C 29.7in /  1006.2hPa SSO 5.2mph /  8.3km/h 13mph /  20.9km/h 48% 0in /  0.0mm
21:59 71.8 °F /  22.1 °C 51.1 °F /  10.6 °C 29.7in /  1006.2hPa SSO 5.4mph /  8.7km/h 10.4mph /  16.7km/h 48% 0in /  0.0mm
22:04 71.8 °F /  22.1 °C 50.9 °F /  10.5 °C 29.7in /  1006.2hPa SSO 6.6mph /  10.7km/h 10.4mph /  16.7km/h 48% 0in /  0.0mm
22:09 71.4 °F /  21.9 °C 51.3 °F /  10.7 °C 29.7in /  1006.2hPa SSO 6.9mph /  11.1km/h 9mph /  14.5km/h 48.8% 0in /  0.0mm
22:14 71.1 °F /  21.7 °C 51.1 °F /  10.6 °C 29.7in /  1005.9hPa SO 5.2mph /  8.3km/h 10.7mph /  17.2km/h 49.3% 0in /  0.0mm
22:19 70.9 °F /  21.6 °C 51.3 °F /  10.7 °C 29.7in /  1005.9hPa SO 4.7mph /  7.6km/h 11mph /  17.7km/h 50% 0in /  0.0mm
22:24 70.5 °F /  21.4 °C 51.4 °F /  10.8 °C 29.7in /  1005.9hPa SO 5.1mph /  8.2km/h 10.4mph /  16.7km/h 50.8% 0in /  0.0mm
22:29 70.3 °F /  21.3 °C 51.4 °F /  10.8 °C 29.7in /  1005.9hPa SO 5.2mph /  8.4km/h 10mph /  16.1km/h 51.4% 0in /  0.0mm
22:34 70.2 °F /  21.2 °C 51.6 °F /  10.9 °C 29.7in /  1005.9hPa SO 5.7mph /  9.2km/h 11.5mph /  18.5km/h 52% 0in /  0.0mm
22:39 70.3 °F /  21.3 °C 51.8 °F /  11 °C 29.7in /  1005.9hPa SSO 5.9mph /  9.5km/h 12mph /  19.3km/h 52% 0in /  0.0mm
22:44 70.5 °F /  21.4 °C 51.6 °F /  10.9 °C 29.7in /  1005.8hPa SSO 6.2mph /  9.9km/h 11.5mph /  18.5km/h 51.1% 0in /  0.0mm
22:49 70.7 °F /  21.5 °C 51.6 °F /  10.9 °C 29.7in /  1005.8hPa SO 6.2mph /  10km/h 12mph /  19.3km/h 51% 0in /  0.0mm
22:54 70.5 °F /  21.4 °C 52 °F /  11.1 °C 29.7in /  1005.8hPa SO 6mph /  9.6km/h 10mph /  16.1km/h 51.9% 0in /  0.0mm
22:59 70.2 °F /  21.2 °C 52 °F /  11.1 °C 29.7in /  1005.7hPa SSO 5.9mph /  9.5km/h 11.5mph /  18.5km/h 52.4% 0in /  0.0mm
23:04 70 °F /  21.1 °C 52.2 °F /  11.2 °C 29.7in /  1005.7hPa SSO 5.5mph /  8.8km/h 12mph /  19.3km/h 53% 0in /  0.0mm
23:09 69.8 °F /  21 °C 52 °F /  11.1 °C 29.7in /  1005.7hPa Sur 5.4mph /  8.7km/h 10.4mph /  16.7km/h 53% 0in /  0.0mm
23:14 69.8 °F /  21 °C 52.2 °F /  11.2 °C 29.7in /  1005.5hPa Sur 5.4mph /  8.7km/h 10.4mph /  16.7km/h 53.4% 0in /  0.0mm
23:19 69.6 °F /  20.9 °C 52.2 °F /  11.2 °C 29.7in /  1005.5hPa Sur 5.4mph /  8.7km/h 11.5mph /  18.5km/h 54% 0in /  0.0mm
23:24 69.6 °F /  20.9 °C 52.2 °F /  11.2 °C 29.7in /  1005.5hPa SSO 5.8mph /  9.3km/h 12mph /  19.3km/h 54% 0in /  0.0mm
23:29 69.4 °F /  20.8 °C 52.3 °F /  11.3 °C 29.7in /  1005.2hPa SO 5.9mph /  9.5km/h 9mph /  14.5km/h 54.5% 0in /  0.0mm
23:34 69.4 °F /  20.8 °C 52.7 °F /  11.5 °C 29.7in /  1005.2hPa SSO 5.3mph /  8.6km/h 10.4mph /  16.7km/h 55% 0in /  0.0mm
23:39 69.6 °F /  20.9 °C 52.3 °F /  11.3 °C 29.7in /  1005.2hPa SSO 5.2mph /  8.4km/h 10.4mph /  16.7km/h 54.2% 0in /  0.0mm
23:44 70 °F /  21.1 °C 52.5 °F /  11.4 °C 29.7in /  1005.1hPa SSO 6mph /  9.6km/h 14mph /  22.5km/h 54% 0in /  0.0mm
23:49 70.2 °F /  21.2 °C 52.5 °F /  11.4 °C 29.7in /  1005.1hPa SSO 6.2mph /  10km/h 14mph /  22.5km/h 53.4% 0in /  0.0mm
23:54 70.3 °F /  21.3 °C 52.5 °F /  11.4 °C 29.7in /  1005.1hPa SSO 6.8mph /  10.9km/h 12mph /  19.3km/h 53% 0in /  0.0mm
23:59 70.5 °F /  21.4 °C 52.5 °F /  11.4 °C 29.7in /  1005.0hPa SSO 6.9mph /  11.1km/h 11.5mph /  18.5km/h 53% 0in /  0.0mm
Murcia-Puente Tocinos, España
Compliments of Weather Underground - 3 mb

La estación de MeteoMurcia.com, publica sus datos en los siguientes proyectos:

Weather Underground PWS IMURCIAP2 Meteoclimatic www.awekas.at

W3Counter
Web Analytics